createdAt,value
2017-08-06T00:00:29.123Z,99.90
2017-08-06T00:02:56.813Z,99.90
2017-08-06T00:05:24.395Z,99.90
2017-08-06T00:07:52.824Z,99.90
2017-08-06T00:10:20.517Z,99.90
2017-08-06T00:12:48.131Z,99.90
2017-08-06T00:15:15.703Z,99.90
2017-08-06T00:17:43.265Z,99.90
2017-08-06T00:20:10.854Z,99.90
2017-08-06T00:22:39.315Z,99.90
2017-08-06T00:25:06.901Z,99.90
2017-08-06T00:27:35.261Z,99.90
2017-08-06T00:30:02.851Z,99.90
2017-08-06T00:32:30.474Z,99.90
2017-08-06T00:34:58.062Z,99.90
2017-08-06T00:37:25.632Z,99.90
2017-08-06T00:39:53.996Z,99.90
2017-08-06T00:42:21.581Z,99.90
2017-08-06T00:44:49.968Z,99.90
2017-08-06T00:47:17.594Z,99.90
2017-08-06T00:49:45.208Z,99.90
2017-08-06T00:52:12.825Z,99.90
2017-08-06T00:54:40.410Z,99.90
2017-08-06T00:57:08.781Z,99.90
2017-08-06T00:59:37.188Z,99.90
2017-08-06T01:02:04.827Z,99.90
2017-08-06T01:04:33.303Z,99.90
2017-08-06T01:07:00.921Z,99.90
2017-08-06T01:09:28.574Z,99.90
2017-08-06T01:11:56.163Z,99.90
2017-08-06T01:14:23.855Z,99.90
2017-08-06T01:16:51.450Z,99.90
2017-08-06T01:19:19.031Z,99.90
2017-08-06T01:21:46.752Z,99.90
2017-08-06T01:24:14.410Z,99.90
2017-08-06T01:26:42.835Z,99.90
2017-08-06T01:29:10.517Z,99.90
2017-08-06T01:31:38.125Z,99.90
2017-08-06T01:34:06.510Z,99.90
2017-08-06T01:36:34.857Z,99.90
2017-08-06T01:39:02.497Z,99.90
2017-08-06T01:41:30.077Z,99.90
2017-08-06T01:43:57.742Z,99.90
2017-08-06T01:46:25.392Z,99.90
2017-08-06T01:48:52.962Z,99.90
2017-08-06T01:51:20.583Z,99.90
2017-08-06T01:53:48.137Z,99.90
2017-08-06T01:56:15.731Z,99.90
2017-08-06T01:58:43.365Z,99.90
2017-08-06T02:01:10.999Z,99.90
2017-08-06T02:03:38.588Z,99.90
2017-08-06T02:06:06.203Z,99.90
2017-08-06T02:08:33.835Z,99.90
2017-08-06T02:11:01.408Z,99.90
2017-08-06T02:13:29.115Z,99.90
2017-08-06T02:15:56.928Z,99.90
2017-08-06T02:18:24.549Z,99.90
2017-08-06T02:20:52.140Z,99.90
2017-08-06T02:23:19.764Z,99.90
2017-08-06T02:25:47.345Z,99.90
2017-08-06T02:28:14.934Z,99.90
2017-08-06T02:30:42.534Z,99.90
2017-08-06T02:33:10.099Z,99.90
2017-08-06T02:35:37.719Z,99.90
2017-08-06T02:38:05.291Z,99.90
2017-08-06T02:40:32.906Z,99.90
2017-08-06T02:43:00.466Z,99.90
2017-08-06T02:45:28.838Z,99.90
2017-08-06T02:47:57.224Z,99.90
2017-08-06T02:50:25.590Z,99.90
2017-08-06T02:52:53.178Z,99.90
2017-08-06T02:55:20.758Z,99.90
2017-08-06T02:57:48.338Z,99.90
2017-08-06T03:00:15.954Z,99.90
2017-08-06T03:02:44.323Z,99.90
2017-08-06T03:05:12.704Z,99.90
2017-08-06T03:07:40.271Z,99.90
2017-08-06T03:10:08.642Z,99.90
2017-08-06T03:12:36.266Z,99.90
2017-08-06T03:15:03.857Z,99.90
2017-08-06T03:17:31.477Z,99.90
2017-08-06T03:19:59.076Z,99.90
2017-08-06T03:22:26.672Z,99.90
2017-08-06T03:24:54.279Z,99.90
2017-08-06T03:27:21.861Z,99.90
2017-08-06T03:29:49.453Z,99.90
2017-08-06T03:32:17.037Z,99.90
2017-08-06T03:34:44.642Z,99.90
2017-08-06T03:37:12.298Z,99.90
2017-08-06T03:39:39.876Z,99.90
2017-08-06T03:42:07.494Z,99.90
2017-08-06T03:44:35.095Z,99.90
2017-08-06T03:47:02.681Z,99.90
2017-08-06T03:49:31.016Z,99.90
2017-08-06T03:51:58.610Z,99.90
2017-08-06T03:54:26.999Z,99.90
2017-08-06T03:56:55.442Z,99.90
2017-08-06T03:59:23.039Z,99.90
2017-08-06T04:01:50.698Z,99.90
2017-08-06T04:04:19.042Z,99.90
2017-08-06T04:06:46.642Z,99.90
2017-08-06T04:09:15.019Z,99.90
2017-08-06T04:11:43.465Z,99.90
2017-08-06T04:14:11.035Z,99.90
2017-08-06T04:16:38.643Z,99.90
2017-08-06T04:19:07.054Z,99.90
2017-08-06T04:21:34.652Z,99.90
2017-08-06T04:24:02.279Z,99.90
2017-08-06T04:26:29.847Z,99.90
2017-08-06T04:28:57.510Z,99.90
2017-08-06T04:31:25.080Z,99.90
2017-08-06T04:33:52.702Z,99.90
2017-08-06T04:36:20.261Z,99.90
2017-08-06T04:38:47.866Z,99.90
2017-08-06T04:41:15.438Z,99.90
2017-08-06T04:43:43.002Z,99.90
2017-08-06T04:46:10.580Z,99.90
2017-08-06T04:48:38.158Z,99.90
2017-08-06T04:51:06.680Z,99.90
2017-08-06T04:53:34.289Z,99.90
2017-08-06T04:56:02.716Z,99.90
2017-08-06T04:58:30.309Z,99.90
2017-08-06T05:00:57.917Z,99.90
2017-08-06T05:03:25.518Z,99.90
2017-08-06T05:05:53.111Z,99.90
2017-08-06T05:08:20.853Z,99.90
2017-08-06T05:10:48.421Z,99.90
2017-08-06T05:13:15.978Z,99.90
2017-08-06T05:15:43.762Z,99.90
2017-08-06T05:18:11.349Z,99.90
2017-08-06T05:20:39.726Z,99.90
2017-08-06T05:23:08.123Z,99.90
2017-08-06T05:25:35.693Z,99.90
2017-08-06T05:28:03.321Z,99.90
2017-08-06T05:30:31.649Z,99.90
2017-08-06T05:32:59.238Z,99.90
2017-08-06T05:35:26.873Z,99.90
2017-08-06T05:37:54.431Z,99.90
2017-08-06T05:40:22.035Z,99.90
2017-08-06T05:42:49.662Z,99.90
2017-08-06T05:45:17.273Z,99.90
2017-08-06T05:47:45.620Z,99.90
2017-08-06T05:50:13.237Z,99.90
2017-08-06T05:52:40.867Z,99.90
2017-08-06T05:55:08.468Z,99.90
2017-08-06T05:57:36.049Z,99.90
2017-08-06T06:00:03.615Z,99.90
2017-08-06T06:02:31.231Z,99.90
2017-08-06T06:04:59.603Z,99.90
2017-08-06T06:07:27.172Z,99.90
2017-08-06T06:09:55.567Z,99.90
2017-08-06T06:12:23.170Z,99.90
2017-08-06T06:14:50.732Z,99.90
2017-08-06T06:17:18.354Z,99.90
2017-08-06T06:19:46.715Z,99.90
2017-08-06T06:22:15.191Z,99.90
2017-08-06T06:24:42.771Z,99.90
2017-08-06T06:27:11.072Z,99.90
2017-08-06T06:29:38.707Z,99.90
2017-08-06T06:32:06.346Z,99.90
2017-08-06T06:34:34.779Z,99.90
2017-08-06T06:37:02.373Z,99.90
2017-08-06T06:39:29.980Z,99.90
2017-08-06T06:41:58.568Z,99.90
2017-08-06T06:44:26.210Z,99.90
2017-08-06T06:46:53.793Z,99.90
2017-08-06T06:49:22.153Z,99.90
2017-08-06T06:51:49.785Z,99.90
2017-08-06T06:54:17.486Z,99.90
2017-08-06T06:56:45.242Z,99.90
2017-08-06T06:59:12.836Z,99.90
2017-08-06T07:01:41.214Z,99.90
2017-08-06T07:04:09.007Z,99.90
2017-08-06T07:06:36.622Z,99.90
2017-08-06T07:09:04.988Z,99.90
2017-08-06T07:11:32.680Z,99.90
2017-08-06T07:14:00.285Z,99.90
2017-08-06T07:16:27.864Z,99.90
2017-08-06T07:18:55.442Z,99.90
2017-08-06T07:21:23.387Z,99.90
2017-08-06T07:23:51.055Z,99.90
2017-08-06T07:26:18.654Z,99.90
2017-08-06T07:28:46.261Z,99.90
2017-08-06T07:31:13.837Z,99.90
2017-08-06T07:33:41.422Z,99.90
2017-08-06T07:36:09.112Z,99.90
2017-08-06T07:38:37.448Z,99.90
2017-08-06T07:41:05.030Z,99.90
2017-08-06T07:43:32.635Z,99.90
2017-08-06T07:46:00.203Z,99.90
2017-08-06T07:48:27.855Z,99.90
2017-08-06T07:50:56.221Z,99.30
2017-08-06T07:53:24.556Z,94.90
2017-08-06T07:55:52.120Z,94.70
2017-08-06T07:58:19.728Z,87.50
2017-08-06T08:00:48.109Z,79.50
2017-08-06T08:03:15.660Z,79.70
2017-08-06T08:05:43.222Z,74.70
2017-08-06T08:08:16.179Z,79.30
2017-08-06T08:10:44.383Z,93.70
2017-08-06T08:13:12.000Z,91.00
2017-08-06T08:15:39.582Z,84.70
2017-08-06T08:18:07.166Z,83.30
2017-08-06T08:20:34.757Z,78.00
2017-08-06T08:23:03.115Z,64.60
2017-08-06T08:25:30.678Z,64.70
2017-08-06T08:27:58.305Z,64.80
2017-08-06T08:30:25.899Z,63.60
2017-08-06T08:32:53.442Z,57.30
2017-08-06T08:35:21.041Z,63.30
2017-08-06T08:37:49.389Z,60.50
2017-08-06T08:40:16.973Z,60.20
2017-08-06T08:42:44.557Z,59.40
2017-08-06T08:45:12.925Z,54.20
2017-08-06T08:47:41.276Z,58.30
2017-08-06T08:50:08.856Z,57.50
2017-08-06T08:52:36.448Z,58.60
2017-08-06T08:55:04.011Z,56.40
2017-08-06T08:57:31.594Z,54.00
2017-08-06T08:59:59.151Z,53.80
2017-08-06T09:02:26.754Z,56.10
2017-08-06T09:04:54.504Z,52.80
2017-08-06T09:07:22.068Z,52.50
2017-08-06T09:09:49.721Z,54.40
2017-08-06T09:12:17.297Z,53.60
2017-08-06T09:14:44.869Z,54.10
2017-08-06T09:17:12.448Z,55.20
2017-08-06T09:19:40.020Z,54.40
2017-08-06T09:22:07.611Z,57.40
2017-08-06T09:24:35.954Z,71.90
2017-08-06T09:27:03.570Z,71.80
2017-08-06T09:29:31.130Z,73.40
2017-08-06T09:31:58.747Z,76.50
2017-08-06T09:34:26.316Z,79.50
2017-08-06T09:36:53.861Z,65.40
2017-08-06T09:39:21.444Z,60.30
2017-08-06T09:41:49.054Z,56.70
2017-08-06T09:44:16.611Z,54.20
2017-08-06T09:46:44.222Z,48.10
2017-08-06T09:49:11.788Z,47.00
2017-08-06T09:51:39.385Z,48.80
2017-08-06T09:54:06.978Z,50.30
2017-08-06T09:56:34.558Z,55.50
2017-08-06T09:59:02.208Z,60.20
2017-08-06T10:01:29.773Z,57.00
2017-08-06T10:03:57.426Z,55.30
2017-08-06T10:06:25.079Z,50.10
2017-08-06T10:08:52.695Z,45.70
2017-08-06T10:11:20.314Z,50.60
2017-08-06T10:13:47.911Z,47.80
2017-08-06T10:16:15.644Z,48.10
2017-08-06T10:18:43.390Z,48.40
2017-08-06T10:21:11.630Z,47.80
2017-08-06T10:23:39.233Z,47.10
2017-08-06T10:26:06.802Z,48.20
2017-08-06T10:28:34.586Z,56.20
2017-08-06T10:31:02.166Z,56.50
2017-08-06T10:33:29.748Z,57.40
2017-08-06T10:35:58.366Z,50.60
2017-08-06T10:38:25.938Z,51.80
2017-08-06T10:40:53.507Z,51.20
2017-08-06T10:43:21.186Z,50.70
2017-08-06T10:45:48.796Z,47.80
2017-08-06T10:48:16.346Z,44.30
2017-08-06T10:50:44.738Z,47.50
2017-08-06T10:53:12.322Z,47.60
2017-08-06T10:55:40.711Z,49.40
2017-08-06T10:58:08.299Z,49.50
2017-08-06T11:00:36.008Z,53.10
2017-08-06T11:03:03.594Z,56.70
2017-08-06T11:05:31.995Z,53.20
2017-08-06T11:07:59.573Z,53.20
2017-08-06T11:10:27.199Z,54.70
2017-08-06T11:12:54.803Z,49.90
2017-08-06T11:15:22.388Z,49.50
2017-08-06T11:17:50.290Z,48.10
2017-08-06T11:20:17.902Z,45.60
2017-08-06T11:22:45.497Z,47.70
2017-08-06T11:25:13.277Z,45.50
2017-08-06T11:27:40.847Z,47.00
2017-08-06T11:30:08.446Z,45.40
2017-08-06T11:32:36.040Z,49.10
2017-08-06T11:35:03.657Z,52.60
2017-08-06T11:37:32.026Z,48.60
2017-08-06T11:40:00.442Z,46.20
2017-08-06T11:42:28.062Z,45.60
2017-08-06T11:44:55.714Z,45.40
2017-08-06T11:47:23.317Z,48.20
2017-08-06T11:49:50.921Z,45.80
2017-08-06T11:52:18.485Z,49.20
2017-08-06T11:54:46.069Z,50.90
2017-08-06T11:57:13.630Z,55.50
2017-08-06T11:59:41.227Z,52.10
2017-08-06T12:02:08.799Z,54.70
2017-08-06T12:04:36.365Z,52.60
2017-08-06T12:07:04.054Z,52.30
2017-08-06T12:09:31.627Z,52.30
2017-08-06T12:11:59.204Z,52.60
2017-08-06T12:14:26.780Z,50.30
2017-08-06T12:16:54.379Z,50.50
2017-08-06T12:19:22.020Z,53.30
2017-08-06T12:21:50.408Z,52.00
2017-08-06T12:24:18.758Z,55.30
2017-08-06T12:26:46.324Z,55.30
2017-08-06T12:29:14.072Z,57.80
2017-08-06T12:31:41.671Z,57.70
2017-08-06T12:34:09.214Z,54.90
2017-08-06T12:36:37.680Z,51.10
2017-08-06T12:39:05.259Z,49.40
2017-08-06T12:41:32.817Z,47.80
2017-08-06T12:44:00.437Z,47.40
2017-08-06T12:46:28.098Z,44.20
2017-08-06T12:48:55.679Z,44.20
2017-08-06T12:51:23.241Z,44.30
2017-08-06T12:53:50.853Z,44.00
2017-08-06T12:56:18.429Z,42.20
2017-08-06T12:58:46.772Z,39.90
2017-08-06T13:01:14.354Z,39.80
2017-08-06T13:03:41.905Z,36.70
2017-08-06T13:06:09.499Z,36.70
2017-08-06T13:08:37.415Z,38.50
2017-08-06T13:11:04.985Z,38.70
2017-08-06T13:13:32.613Z,40.00
2017-08-06T13:16:00.223Z,40.90
2017-08-06T13:18:27.852Z,46.30
2017-08-06T13:20:55.407Z,45.90
2017-08-06T13:23:22.999Z,47.10
2017-08-06T13:25:50.602Z,48.00
2017-08-06T13:28:18.943Z,48.00
2017-08-06T13:30:46.559Z,47.90
2017-08-06T13:33:14.903Z,48.60
2017-08-06T13:35:42.590Z,48.50
2017-08-06T13:38:10.163Z,49.20
2017-08-06T13:40:38.524Z,52.70
2017-08-06T13:43:06.086Z,52.50
2017-08-06T13:45:33.665Z,50.00
2017-08-06T13:48:01.269Z,46.70
2017-08-06T13:50:28.867Z,44.80
2017-08-06T13:52:56.455Z,45.60
2017-08-06T13:55:24.811Z,50.10
2017-08-06T13:57:52.410Z,49.90
2017-08-06T14:00:20.754Z,52.60
2017-08-06T14:02:48.395Z,52.60
2017-08-06T14:05:16.106Z,47.00
2017-08-06T14:07:44.451Z,48.30
2017-08-06T14:10:12.038Z,47.70
2017-08-06T14:12:39.770Z,50.20
2017-08-06T14:15:07.375Z,51.20
2017-08-06T14:17:34.932Z,44.80
2017-08-06T14:20:02.648Z,42.30
2017-08-06T14:22:30.265Z,45.00
2017-08-06T14:24:57.832Z,44.10
2017-08-06T14:27:26.858Z,40.20
2017-08-06T14:29:54.459Z,40.40
2017-08-06T14:32:22.987Z,41.70
2017-08-06T14:34:51.333Z,41.50
2017-08-06T14:37:18.931Z,41.50
2017-08-06T14:39:46.642Z,42.70
2017-08-06T14:42:14.243Z,44.60
2017-08-06T14:44:41.826Z,43.20
2017-08-06T14:47:10.399Z,41.10
2017-08-06T14:49:38.786Z,42.00
2017-08-06T14:52:06.386Z,42.00
2017-08-06T14:54:33.982Z,40.40
2017-08-06T14:57:01.596Z,39.30
2017-08-06T14:59:29.183Z,37.20
2017-08-06T15:01:56.745Z,39.50
2017-08-06T15:04:24.367Z,40.80
2017-08-06T15:06:52.734Z,43.10
2017-08-06T15:09:20.328Z,43.00
2017-08-06T15:11:48.656Z,45.10
2017-08-06T15:14:16.256Z,45.00
2017-08-06T15:16:44.603Z,43.10
2017-08-06T15:19:12.248Z,43.00
2017-08-06T15:21:39.865Z,43.00
2017-08-06T15:24:08.200Z,45.20
2017-08-06T15:26:35.849Z,45.20
2017-08-06T15:29:03.429Z,44.60
2017-08-06T15:31:30.996Z,44.30
2017-08-06T15:33:59.089Z,43.90
2017-08-06T15:36:26.665Z,43.50
2017-08-06T15:38:55.059Z,45.50
2017-08-06T15:41:22.939Z,45.50
2017-08-06T15:43:50.479Z,41.10
2017-08-06T15:46:18.076Z,42.70
2017-08-06T15:48:45.728Z,43.10
2017-08-06T15:51:13.321Z,43.80
2017-08-06T15:53:40.903Z,43.10
2017-08-06T15:56:08.566Z,42.30
2017-08-06T15:58:36.127Z,45.10
2017-08-06T16:01:03.735Z,46.50
2017-08-06T16:03:32.059Z,46.40
2017-08-06T16:05:59.708Z,46.30
2017-08-06T16:08:27.323Z,46.80
2017-08-06T16:10:54.877Z,45.90
2017-08-06T16:13:22.485Z,45.90
2017-08-06T16:15:50.070Z,46.00
2017-08-06T16:18:17.678Z,48.10
2017-08-06T16:20:45.298Z,47.70
2017-08-06T16:23:12.880Z,50.60
2017-08-06T16:25:40.496Z,51.30
2017-08-06T16:28:08.107Z,52.70
2017-08-06T16:30:35.873Z,53.40
2017-08-06T16:33:04.557Z,55.40
2017-08-06T16:35:32.147Z,55.40
2017-08-06T16:37:59.754Z,55.00
2017-08-06T16:40:28.123Z,53.30
2017-08-06T16:42:55.745Z,53.30
2017-08-06T16:45:23.377Z,51.10
2017-08-06T16:47:51.175Z,51.00
2017-08-06T16:50:18.876Z,50.60
2017-08-06T16:52:46.501Z,51.30
2017-08-06T16:55:14.119Z,50.60
2017-08-06T16:57:42.484Z,51.80
2017-08-06T17:00:10.061Z,51.80
2017-08-06T17:02:38.476Z,51.60
2017-08-06T17:05:06.095Z,51.50
2017-08-06T17:07:33.675Z,51.80
2017-08-06T17:10:01.265Z,55.70
2017-08-06T17:12:28.895Z,54.60
2017-08-06T17:14:57.288Z,53.40
2017-08-06T17:17:25.690Z,52.70
2017-08-06T17:19:53.293Z,52.70
2017-08-06T17:22:20.867Z,54.40
2017-08-06T17:24:48.450Z,54.40
2017-08-06T17:27:16.044Z,53.20
2017-08-06T17:29:43.614Z,55.20
2017-08-06T17:32:11.211Z,53.60
2017-08-06T17:34:38.863Z,54.30
2017-08-06T17:37:06.463Z,57.10
2017-08-06T17:39:34.808Z,58.70
2017-08-06T17:42:02.419Z,58.60
2017-08-06T17:44:30.739Z,61.00
2017-08-06T17:46:58.320Z,61.10
2017-08-06T17:49:25.902Z,59.40
2017-08-06T17:51:53.687Z,60.10
2017-08-06T17:54:22.584Z,60.00
2017-08-06T17:56:50.925Z,58.80
2017-08-06T17:59:18.508Z,58.80
2017-08-06T18:01:46.138Z,57.90
2017-08-06T18:04:13.715Z,59.00
2017-08-06T18:06:41.284Z,61.70
2017-08-06T18:09:08.868Z,66.70
2017-08-06T18:11:37.287Z,63.80
2017-08-06T18:14:04.906Z,63.80
2017-08-06T18:16:32.516Z,72.60
2017-08-06T18:19:00.104Z,66.70
2017-08-06T18:21:27.779Z,70.60
2017-08-06T18:23:55.369Z,74.60
2017-08-06T18:26:23.698Z,80.50
2017-08-06T18:28:51.296Z,80.50
2017-08-06T18:31:18.908Z,74.90
2017-08-06T18:33:46.481Z,79.70
2017-08-06T18:36:14.062Z,75.00
2017-08-06T18:38:41.697Z,75.00
2017-08-06T18:41:09.278Z,77.80
2017-08-06T18:43:36.870Z,73.50
2017-08-06T18:46:04.487Z,74.60
2017-08-06T18:48:32.086Z,75.50
2017-08-06T18:50:59.643Z,77.90
2017-08-06T18:53:27.230Z,84.00
2017-08-06T18:55:55.597Z,91.50
2017-08-06T18:58:23.189Z,91.50
2017-08-06T19:00:51.538Z,96.60
2017-08-06T19:03:19.119Z,96.60
2017-08-06T19:05:48.079Z,99.90
2017-08-06T19:08:15.656Z,99.90
2017-08-06T19:10:43.312Z,99.90
2017-08-06T19:13:10.908Z,99.90
2017-08-06T19:15:39.287Z,99.90
2017-08-06T19:18:07.812Z,99.90
2017-08-06T19:20:35.592Z,99.90
2017-08-06T19:23:03.309Z,99.90
2017-08-06T19:25:31.277Z,99.90
2017-08-06T19:27:59.375Z,99.90
2017-08-06T19:30:27.213Z,99.90
2017-08-06T19:32:55.659Z,99.90
2017-08-06T19:35:23.432Z,99.90
2017-08-06T19:37:51.076Z,99.90
2017-08-06T19:40:18.751Z,99.90
2017-08-06T19:42:47.231Z,99.90
2017-08-06T19:45:15.190Z,99.90
2017-08-06T19:47:43.060Z,99.90
2017-08-06T19:50:10.824Z,99.90
2017-08-06T19:52:38.443Z,99.90
2017-08-06T19:55:06.850Z,99.90
2017-08-06T19:57:34.497Z,99.90
2017-08-06T20:00:03.008Z,99.90
2017-08-06T20:02:30.662Z,99.90
2017-08-06T20:04:58.272Z,99.90
2017-08-06T20:07:25.864Z,99.90
2017-08-06T20:09:53.576Z,99.90
2017-08-06T20:12:21.204Z,99.90
2017-08-06T20:14:49.673Z,99.90
2017-08-06T20:17:17.274Z,99.90
2017-08-06T20:19:44.945Z,99.90
2017-08-06T20:22:12.523Z,99.90
2017-08-06T20:24:40.087Z,99.90
2017-08-06T20:27:07.706Z,99.90
2017-08-06T20:29:36.082Z,99.90
2017-08-06T20:32:03.647Z,99.90
2017-08-06T20:34:31.250Z,99.90
2017-08-06T20:36:58.834Z,99.90
2017-08-06T20:39:26.579Z,99.90
2017-08-06T20:41:54.170Z,99.90
2017-08-06T20:44:21.732Z,99.90
2017-08-06T20:46:49.301Z,99.90
2017-08-06T20:49:16.918Z,99.90
2017-08-06T20:51:44.493Z,99.90
2017-08-06T20:54:12.103Z,99.90
2017-08-06T20:56:40.445Z,99.90
2017-08-06T20:59:08.132Z,99.90
2017-08-06T21:01:35.706Z,99.90
2017-08-06T21:04:04.054Z,99.90
2017-08-06T21:06:31.641Z,99.90
2017-08-06T21:09:00.490Z,99.90
2017-08-06T21:11:28.057Z,99.90
2017-08-06T21:13:55.750Z,99.90
2017-08-06T21:16:23.367Z,99.90
2017-08-06T21:18:51.019Z,99.90
2017-08-06T21:21:18.593Z,99.90
2017-08-06T21:23:46.158Z,99.90
2017-08-06T21:26:13.745Z,99.90
2017-08-06T21:28:41.316Z,99.90
2017-08-06T21:31:08.920Z,99.90
2017-08-06T21:33:36.529Z,99.90
2017-08-06T21:36:04.136Z,99.90
2017-08-06T21:38:32.553Z,99.90
2017-08-06T21:41:00.125Z,99.90
2017-08-06T21:43:27.977Z,99.90
2017-08-06T21:45:55.554Z,99.90
2017-08-06T21:48:23.114Z,99.90
2017-08-06T21:50:50.728Z,99.90
2017-08-06T21:53:19.103Z,99.90
2017-08-06T21:55:47.548Z,99.90
2017-08-06T21:58:16.096Z,99.90
2017-08-06T22:00:43.686Z,99.90
2017-08-06T22:03:11.270Z,99.90
2017-08-06T22:05:38.835Z,99.90
2017-08-06T22:08:06.461Z,99.90
2017-08-06T22:10:34.051Z,99.90
2017-08-06T22:13:02.003Z,99.90
2017-08-06T22:15:29.574Z,99.90
2017-08-06T22:17:57.339Z,99.90
2017-08-06T22:20:24.901Z,99.90
2017-08-06T22:22:52.500Z,99.90
2017-08-06T22:25:20.121Z,99.90
2017-08-06T22:27:47.693Z,99.90
2017-08-06T22:30:15.339Z,99.90
2017-08-06T22:32:42.952Z,99.90
2017-08-06T22:35:11.667Z,99.90
2017-08-06T22:37:39.242Z,99.90
2017-08-06T22:40:06.862Z,99.90
2017-08-06T22:42:35.262Z,99.90
2017-08-06T22:45:03.634Z,99.90
2017-08-06T22:47:31.226Z,99.90
2017-08-06T22:49:58.812Z,99.90
2017-08-06T22:52:26.389Z,99.90
2017-08-06T22:54:53.970Z,99.90
2017-08-06T22:57:21.555Z,99.90
2017-08-06T22:59:49.164Z,99.90
2017-08-06T23:02:16.796Z,99.90
2017-08-06T23:04:44.363Z,99.90
2017-08-06T23:07:11.929Z,99.90
2017-08-06T23:09:39.510Z,99.90
2017-08-06T23:12:07.095Z,99.90
2017-08-06T23:14:34.678Z,99.90
2017-08-06T23:17:02.246Z,99.90
2017-08-06T23:19:29.820Z,99.90
2017-08-06T23:21:57.561Z,99.90
2017-08-06T23:24:25.139Z,99.90
2017-08-06T23:26:52.835Z,99.90
2017-08-06T23:29:20.416Z,99.90
2017-08-06T23:31:48.862Z,99.90
2017-08-06T23:34:16.478Z,99.90
2017-08-06T23:36:44.042Z,99.90
2017-08-06T23:39:12.406Z,99.90
2017-08-06T23:41:39.960Z,99.90
2017-08-06T23:44:07.535Z,99.90
2017-08-06T23:46:35.121Z,99.90
2017-08-06T23:49:03.481Z,99.90
2017-08-06T23:51:31.239Z,99.90
2017-08-06T23:53:58.810Z,99.90
2017-08-06T23:56:26.413Z,99.90
2017-08-06T23:58:53.994Z,99.90
